Time;durP1;ratioP1;P1;durP2;ratioP2;P2;SDS_P1;SDS_P2;PMS_P1;PMS_P2;Temp;Humidity;BMP_temperature;BMP_pressure;BME280_temperature;BME280_humidity;BME280_pressure;Samples;Min_cycle;Max_cycle;Signal;HPM_P1;HPM_P2
2024/02/01 00:01:17;;;;;;;12.05;5.88;;;;;;;;;;4974969;28;20049;-82
2024/02/01 00:03:44;;;;;;;14.15;6.00;;;;;;;;;;4990815;28;20054;-82
2024/02/01 00:06:11;;;;;;;13.98;5.93;;;;;;;;;;4992899;28;20044;-81
2024/02/01 00:08:39;;;;;;;12.60;5.60;;;;;;;;;;4973085;28;20180;-82
2024/02/01 00:11:07;;;;;;;14.40;5.53;;;;;;;;;;4992962;28;20025;-82
2024/02/01 00:13:34;;;;;;;10.38;4.63;;;;;;;;;;4991300;28;20121;-82
2024/02/01 00:16:01;;;;;;;12.15;5.00;;;;;;;;;;4990672;28;20097;-80
2024/02/01 00:18:27;;;;;;;12.73;4.97;;;;;;;;;;4971914;28;20053;-81
2024/02/01 00:20:54;;;;;;;11.50;4.90;;;;;;;;;;4969129;28;20038;-81
2024/02/01 00:23:20;;;;;;;13.40;4.90;;;;;;;;;;4962326;28;20101;-81
2024/02/01 00:25:49;;;;;;;11.13;4.80;;;;;;;;;;4981621;28;20283;-81
2024/02/01 00:28:16;;;;;;;12.43;5.25;;;;;;;;;;4962408;28;20683;-81
2024/02/01 00:30:44;;;;;;;11.93;5.07;;;;;;;;;;4981710;28;20113;-82
2024/02/01 00:33:10;;;;;;;10.85;4.60;;;;;;;;;;4979775;28;20033;-81
2024/02/01 00:35:36;;;;;;;13.98;4.93;;;;;;;;;;4961732;28;20030;-82
2024/02/01 00:38:02;;;;;;;10.40;4.72;;;;;;;;;;4963870;28;20026;-82
2024/02/01 00:40:29;;;;;;;11.40;4.45;;;;;;;;;;4975669;28;20228;-82
2024/02/01 00:42:58;;;;;;;9.90;3.80;;;;;;;;;;4976607;28;20042;-82
2024/02/01 00:45:26;;;;;;;9.95;4.85;;;;;;;;;;4978912;28;20655;-82
2024/02/01 00:47:52;;;;;;;12.40;5.30;;;;;;;;;;4954142;28;20041;-81
2024/02/01 00:50:19;;;;;;;11.75;4.60;;;;;;;;;;4960599;28;20038;-81
2024/02/01 00:52:46;;;;;;;11.52;4.22;;;;;;;;;;4956140;28;20050;-82
2024/02/01 00:55:12;;;;;;;11.45;4.22;;;;;;;;;;4956792;28;20038;-82
2024/02/01 00:57:40;;;;;;;9.93;4.30;;;;;;;;;;4965668;28;20112;-75
2024/02/01 01:00:22;;;;;;;;;;;;;;;;;;;;;
2024/02/01 01:02:49;;;;;;;10.48;3.90;;;;;;;;;;4978318;28;20110;-75
2024/02/01 01:05:17;;;;;;;10.35;4.00;;;;;;;;;;4974092;28;20045;-75
2024/02/01 01:07:45;;;;;;;9.55;3.95;;;;;;;;;;4974507;28;20030;-74
2024/02/01 01:10:11;;;;;;;11.50;4.47;;;;;;;;;;4956534;28;20034;-74
2024/02/01 01:12:37;;;;;;;10.75;3.97;;;;;;;;;;4972000;28;20034;-75
2024/02/01 01:15:03;;;;;;;10.15;4.38;;;;;;;;;;4957533;28;20034;-75
2024/02/01 01:17:31;;;;;;;11.85;4.68;;;;;;;;;;4967942;28;20037;-75
2024/02/01 01:20:02;;;;;;;10.63;4.50;;;;;;;;;;4956126;28;20045;-74
2024/02/01 01:22:31;;;;;;;11.98;3.83;;;;;;;;;;4971488;28;20073;-74
2024/02/01 01:24:57;;;;;;;13.00;4.10;;;;;;;;;;4957072;28;20041;-75
2024/02/01 01:27:25;;;;;;;11.07;4.03;;;;;;;;;;4970686;28;20038;-76
2024/02/01 01:29:53;;;;;;;9.70;3.85;;;;;;;;;;4959669;28;20035;-74
2024/02/01 01:32:20;;;;;;;12.55;4.03;;;;;;;;;;4957416;28;20046;-74
2024/02/01 01:34:48;;;;;;;9.98;3.60;;;;;;;;;;4979145;28;20026;-76
2024/02/01 01:37:14;;;;;;;10.60;4.25;;;;;;;;;;4975153;28;20914;-77
2024/02/01 01:39:42;;;;;;;11.48;4.45;;;;;;;;;;4953682;28;20627;-75
2024/02/01 01:42:09;;;;;;;14.02;4.65;;;;;;;;;;4975008;28;20485;-75
2024/02/01 01:44:39;;;;;;;11.52;4.63;;;;;;;;;;4936691;28;20122;-76
2024/02/01 01:47:06;;;;;;;11.68;4.70;;;;;;;;;;4976041;28;20042;-76
2024/02/01 01:49:32;;;;;;;12.50;5.05;;;;;;;;;;4972387;28;20525;-76
2024/02/01 01:51:59;;;;;;;11.15;4.50;;;;;;;;;;4953296;28;20034;-75
2024/02/01 01:54:26;;;;;;;12.82;4.55;;;;;;;;;;4953657;28;20529;-76
2024/02/01 01:56:52;;;;;;;11.80;4.25;;;;;;;;;;4956413;28;20822;-75
2024/02/01 01:59:20;;;;;;;9.90;4.35;;;;;;;;;;4953476;28;20375;-74
2024/02/01 02:01:47;;;;;;;11.23;4.53;;;;;;;;;;4950638;28;20034;-75
2024/02/01 02:04:19;;;;;;;11.57;4.10;;;;;;;;;;4978348;28;20042;-76
2024/02/01 02:06:46;;;;;;;10.75;4.43;;;;;;;;;;4947902;28;20092;-76
2024/02/01 02:09:14;;;;;;;11.55;4.43;;;;;;;;;;4953032;28;20039;-75
2024/02/01 02:11:44;;;;;;;13.23;4.60;;;;;;;;;;4950972;28;20040;-76
2024/02/01 02:14:14;;;;;;;10.05;3.90;;;;;;;;;;4969560;28;20030;-77
2024/02/01 02:16:42;;;;;;;10.65;4.32;;;;;;;;;;4952587;28;20117;-76
2024/02/01 02:19:09;;;;;;;11.20;3.80;;;;;;;;;;4955237;28;20072;-75
2024/02/01 02:21:49;;;;;;;10.65;4.00;;;;;;;;;;4967556;28;20033;-75
2024/02/01 02:24:16;;;;;;;9.88;3.63;;;;;;;;;;4951053;28;20122;-75
2024/02/01 02:26:44;;;;;;;9.60;3.60;;;;;;;;;;4982307;28;20699;-75
2024/02/01 02:29:16;;;;;;;10.63;3.90;;;;;;;;;;4963487;28;20664;-75
2024/02/01 02:31:46;;;;;;;10.75;3.65;;;;;;;;;;4965073;28;20034;-75
2024/02/01 02:34:14;;;;;;;10.07;3.58;;;;;;;;;;4983907;28;20038;-74
2024/02/01 02:36:41;;;;;;;9.27;3.90;;;;;;;;;;4983791;28;22650;-77
2024/02/01 02:39:09;;;;;;;10.10;3.95;;;;;;;;;;4986301;28;20061;-76
2024/02/01 02:41:35;;;;;;;9.80;3.92;;;;;;;;;;4983826;28;20018;-76
2024/02/01 02:44:02;;;;;;;;;;;;;;;;;;4988665;28;20032;-76
2024/02/01 02:46:30;;;;;;;10.85;3.72;;;;;;;;;;4965990;28;19913;-76
2024/02/01 02:48:57;;;;;;;9.68;3.10;;;;;;;;;;4965506;28;20054;-76
2024/02/01 02:51:23;;;;;;;10.23;3.80;;;;;;;;;;4971033;28;20744;-76
2024/02/01 02:53:49;;;;;;;12.18;4.35;;;;;;;;;;4968715;28;20057;-76
2024/02/01 02:56:17;;;;;;;10.73;4.00;;;;;;;;;;4985867;28;20034;-76
2024/02/01 02:58:46;;;;;;;10.90;3.83;;;;;;;;;;4984001;28;20030;-76
2024/02/01 03:01:12;;;;;;;9.93;3.53;;;;;;;;;;4970365;28;20061;-77
2024/02/01 03:03:40;;;;;;;10.38;4.05;;;;;;;;;;4968655;28;20528;-76
2024/02/01 03:06:12;;;;;;;10.68;3.50;;;;;;;;;;4988890;28;20029;-75
2024/02/01 03:08:41;;;;;;;11.57;3.50;;;;;;;;;;4948568;28;20053;-76
2024/02/01 03:11:10;;;;;;;10.75;3.92;;;;;;;;;;4969944;28;20065;-77
2024/02/01 03:13:40;;;;;;;10.85;3.53;;;;;;;;;;4985698;28;20057;-76
2024/02/01 03:16:20;;;;;;;9.25;3.50;;;;;;;;;;4967950;28;20022;-76
2024/02/01 03:18:49;;;;;;;11.32;3.78;;;;;;;;;;4989382;28;20096;-77
2024/02/01 03:21:30;;;;;;;9.40;3.40;;;;;;;;;;4986129;28;20053;-76
2024/02/01 03:24:00;;;;;;;10.77;3.70;;;;;;;;;;4990574;28;20052;-76
2024/02/01 03:26:34;;;;;;;9.18;3.53;;;;;;;;;;4986202;28;20026;-76
2024/02/01 03:29:00;;;;;;;10.98;3.47;;;;;;;;;;4988228;28;20080;-75
2024/02/01 03:31:35;;;;;;;11.15;3.35;;;;;;;;;;4971660;28;20398;-76
2024/02/01 03:34:10;;;;;;;9.13;3.30;;;;;;;;;;4972342;28;20484;-77
2024/02/01 03:36:37;;;;;;;10.10;3.60;;;;;;;;;;4987795;28;20022;-76
2024/02/01 03:42:00;;;;;;;9.68;3.45;;;;;;;;;;4977363;28;20104;-76
2024/02/01 03:44:28;;;;;;;11.32;3.33;;;;;;;;;;4986489;28;20045;-77
2024/02/01 03:46:57;;;;;;;10.02;3.40;;;;;;;;;;4973428;28;20719;-76
2024/02/01 03:49:25;;;;;;;12.77;3.65;;;;;;;;;;4988353;28;20025;-76
2024/02/01 03:51:52;;;;;;;8.82;3.35;;;;;;;;;;4993182;28;20029;-76
2024/02/01 03:54:18;;;;;;;10.20;3.60;;;;;;;;;;4973443;28;20754;-76
2024/02/01 03:56:46;;;;;;;11.05;3.70;;;;;;;;;;4989068;28;20105;-76
2024/02/01 03:59:14;;;;;;;12.75;3.80;;;;;;;;;;4991117;28;20516;-76
2024/02/01 04:01:40;;;;;;;12.40;4.10;;;;;;;;;;4972160;28;20048;-76
2024/02/01 04:04:07;;;;;;;10.02;3.70;;;;;;;;;;4992324;28;20486;-76
2024/02/01 04:06:37;;;;;;;9.93;3.45;;;;;;;;;;4971488;28;20065;-76
2024/02/01 04:09:05;;;;;;;12.32;3.65;;;;;;;;;;4992840;28;20156;-76
2024/02/01 04:11:33;;;;;;;11.35;3.65;;;;;;;;;;4985659;28;20117;-76
2024/02/01 04:14:01;;;;;;;9.90;3.40;;;;;;;;;;4991851;28;20049;-77
2024/02/01 04:16:31;;;;;;;9.95;2.97;;;;;;;;;;4972871;28;20026;-75
2024/02/01 04:18:57;;;;;;;10.35;3.40;;;;;;;;;;4990744;28;20514;-76
2024/02/01 04:21:27;;;;;;;11.02;3.42;;;;;;;;;;4969192;28;20056;-76
2024/02/01 04:23:54;;;;;;;9.23;3.35;;;;;;;;;;4974384;28;20050;-75
2024/02/01 04:26:22;;;;;;;10.80;4.00;;;;;;;;;;4975533;28;20180;-75
2024/02/01 04:28:52;;;;;;;10.82;3.60;;;;;;;;;;4975157;28;20037;-76
2024/02/01 04:31:20;;;;;;;10.60;3.75;;;;;;;;;;4972069;28;20561;-76
2024/02/01 04:33:46;;;;;;;11.88;3.90;;;;;;;;;;4988048;28;20731;-76
2024/02/01 04:36:15;;;;;;;10.30;3.17;;;;;;;;;;4989959;28;20129;-76
2024/02/01 04:38:43;;;;;;;10.68;3.40;;;;;;;;;;4971745;28;20209;-76
2024/02/01 04:41:10;;;;;;;10.82;3.33;;;;;;;;;;4990575;28;20466;-77
2024/02/01 04:43:40;;;;;;;8.57;2.90;;;;;;;;;;4967911;28;20041;-77
2024/02/01 04:46:09;;;;;;;11.52;3.28;;;;;;;;;;4970069;28;20045;-76
2024/02/01 04:48:37;;;;;;;11.27;3.35;;;;;;;;;;4986991;28;20049;-74
2024/02/01 04:51:05;;;;;;;8.38;3.20;;;;;;;;;;4987912;28;20046;-74
2024/02/01 04:53:31;;;;;;;12.00;3.45;;;;;;;;;;4984583;28;20494;-75
2024/02/01 04:56:00;;;;;;;11.75;3.42;;;;;;;;;;4973874;28;20119;-75
2024/02/01 04:58:28;;;;;;;13.75;3.45;;;;;;;;;;4988127;28;20026;-75
2024/02/01 05:00:55;;;;;;;11.30;3.08;;;;;;;;;;4990703;28;20844;-74
2024/02/01 05:03:22;;;;;;;9.40;3.30;;;;;;;;;;4969556;28;20100;-75
2024/02/01 05:05:49;;;;;;;10.50;3.38;;;;;;;;;;4962184;28;20033;-74
2024/02/01 05:08:17;;;;;;;10.73;3.67;;;;;;;;;;4969183;28;20061;-75
2024/02/01 05:10:46;;;;;;;10.27;3.55;;;;;;;;;;4970021;28;20040;-75
2024/02/01 05:13:14;;;;;;;9.63;3.53;;;;;;;;;;4956570;28;20120;-74
2024/02/01 05:15:41;;;;;;;9.77;3.40;;;;;;;;;;4969537;28;20033;-75
2024/02/01 05:18:10;;;;;;;10.90;3.17;;;;;;;;;;4972478;28;20049;-75
2024/02/01 05:20:38;;;;;;;9.40;3.30;;;;;;;;;;4969355;28;20060;-76
2024/02/01 05:23:05;;;;;;;10.30;3.97;;;;;;;;;;4987537;28;20120;-75
2024/02/01 05:25:31;;;;;;;9.98;3.42;;;;;;;;;;4986649;28;20030;-76
2024/02/01 05:27:59;;;;;;;10.00;3.40;;;;;;;;;;4988485;28;20140;-76
2024/02/01 05:30:25;;;;;;;13.00;3.42;;;;;;;;;;4984207;28;20048;-76
2024/02/01 05:32:53;;;;;;;10.82;3.47;;;;;;;;;;4988375;28;20176;-76
2024/02/01 05:35:29;;;;;;;11.10;3.55;;;;;;;;;;4971225;28;20045;-75
2024/02/01 05:37:56;;;;;;;9.43;3.40;;;;;;;;;;4972610;28;20122;-76
2024/02/01 05:40:23;;;;;;;11.07;4.00;;;;;;;;;;4969123;28;20101;-75
2024/02/01 05:42:49;;;;;;;;;;;;;;;;;;4954791;28;20033;-76
2024/02/01 05:45:16;;;;;;;9.90;3.63;;;;;;;;;;4970418;28;19992;-75
2024/02/01 05:47:42;;;;;;;10.80;4.00;;;;;;;;;;4972711;28;20490;-75
2024/02/01 05:50:10;;;;;;;10.07;3.80;;;;;;;;;;4974217;28;20069;-75
2024/02/01 05:52:36;;;;;;;10.20;3.45;;;;;;;;;;4961986;28;20045;-75
2024/02/01 05:55:05;;;;;;;;;;;;;;;;;;4989063;28;20117;-75
2024/02/01 05:57:33;;;;;;;13.05;4.47;;;;;;;;;;4985163;28;20326;-75
2024/02/01 06:00:04;;;;;;;10.10;3.60;;;;;;;;;;4973207;28;20022;-76
2024/02/01 06:02:32;;;;;;;10.35;3.83;;;;;;;;;;4985989;28;20030;-75
2024/02/01 06:05:00;;;;;;;12.40;4.10;;;;;;;;;;4968917;28;20655;-75
2024/02/01 06:07:26;;;;;;;12.45;4.10;;;;;;;;;;4967607;28;20076;-76
2024/02/01 06:09:52;;;;;;;9.52;3.55;;;;;;;;;;4971652;28;20053;-76
2024/02/01 06:12:19;;;;;;;10.98;3.83;;;;;;;;;;4989167;28;20379;-75
2024/02/01 06:14:45;;;;;;;13.02;4.13;;;;;;;;;;4970905;28;20033;-76
2024/02/01 06:17:12;;;;;;;13.68;3.88;;;;;;;;;;4986251;28;20084;-77
2024/02/01 06:19:41;;;;;;;11.95;3.75;;;;;;;;;;4966213;28;20118;-76
2024/02/01 06:22:08;;;;;;;9.48;3.03;;;;;;;;;;4991899;28;20046;-78
2024/02/01 06:24:34;;;;;;;9.75;2.83;;;;;;;;;;4987635;28;20029;-75
2024/02/01 06:27:01;;;;;;;10.07;3.70;;;;;;;;;;4972846;28;20088;-76
2024/02/01 06:29:28;;;;;;;11.05;3.70;;;;;;;;;;4989909;28;20050;-75
2024/02/01 06:31:59;;;;;;;12.40;5.80;;;;;;;;;;4988163;28;20076;-75
2024/02/01 06:34:38;;;;;;;13.77;4.70;;;;;;;;;;4988054;28;20053;-76
2024/02/01 06:37:08;;;;;;;13.93;5.40;;;;;;;;;;4989476;28;20030;-75
2024/02/01 06:44:47;;;;;;;14.57;7.10;;;;;;;;;;4992784;28;20497;-75
2024/02/01 06:47:23;;;;;;;13.45;5.80;;;;;;;;;;4988295;28;20581;-75
2024/02/01 06:50:14;;;;;;;13.23;6.32;;;;;;;;;;4991192;28;20038;-75
2024/02/01 06:52:43;;;;;;;15.02;5.93;;;;;;;;;;4985867;28;20212;-75
2024/02/01 07:00:50;;;;;;;18.15;7.43;;;;;;;;;;4988371;28;20047;-76
2024/02/01 07:09:16;;;;;;;15.60;7.70;;;;;;;;;;4988263;28;20044;-75
2024/02/01 07:11:25;;;;;;;17.02;8.30;;;;;;;;;;4983171;28;20073;-74
2024/02/01 07:20:14;;;;;;;14.15;5.63;;;;;;;;;;4992889;28;20103;-75
2024/02/01 07:22:12;;;;;;;13.15;6.10;;;;;;;;;;4971629;28;20041;-75
2024/02/01 08:00:51;;;;;;;12.88;5.28;;;;;;;;;;4991090;28;20100;-76
2024/02/01 08:08:30;;;;;;;15.13;5.82;;;;;;;;;;4990786;28;21161;-76
2024/02/01 08:10:56;;;;;;;13.25;5.82;;;;;;;;;;4973235;28;20026;-75
2024/02/01 08:13:23;;;;;;;14.32;5.68;;;;;;;;;;4966091;28;20048;-75
2024/02/01 08:15:55;;;;;;;14.18;5.30;;;;;;;;;;4974858;28;20032;-77
2024/02/01 08:18:26;;;;;;;14.23;5.28;;;;;;;;;;4989746;28;20026;-77
2024/02/01 08:20:55;;;;;;;15.80;5.57;;;;;;;;;;4991897;28;20057;-77
2024/02/01 08:23:23;;;;;;;15.52;5.68;;;;;;;;;;4971959;28;20046;-77
2024/02/01 08:25:50;;;;;;;17.90;5.00;;;;;;;;;;4992619;28;20037;-77
2024/02/01 08:28:20;;;;;;;12.10;4.20;;;;;;;;;;4993688;28;20050;-77
2024/02/01 08:30:47;;;;;;;17.27;4.75;;;;;;;;;;4990828;28;20038;-77
2024/02/01 08:33:18;;;;;;;15.50;6.00;;;;;;;;;;4973304;28;20040;-77
2024/02/01 08:35:45;;;;;;;14.32;5.80;;;;;;;;;;4971753;28;20060;-77
2024/02/01 08:38:13;;;;;;;13.15;5.38;;;;;;;;;;4988102;28;20018;-77
2024/02/01 08:40:43;;;;;;;12.55;5.70;;;;;;;;;;4969908;28;20062;-75
2024/02/01 08:43:14;;;;;;;18.92;6.63;;;;;;;;;;4973971;28;20029;-78
2024/02/01 08:45:44;;;;;;;14.20;6.00;;;;;;;;;;4968275;28;20037;-75
2024/02/01 08:48:10;;;;;;;15.02;6.30;;;;;;;;;;4954876;28;20057;-75
2024/02/01 08:50:48;;;;;;;14.48;6.20;;;;;;;;;;4966194;28;20083;-75
2024/02/01 08:53:16;;;;;;;19.35;6.40;;;;;;;;;;4976359;28;20025;-75
2024/02/01 08:55:43;;;;;;;17.05;6.82;;;;;;;;;;4985729;28;20180;-75
2024/02/01 08:58:11;;;;;;;17.83;6.55;;;;;;;;;;4954279;28;20089;-76
2024/02/01 09:00:42;;;;;;;17.25;7.53;;;;;;;;;;4986679;28;20083;-76
2024/02/01 09:03:16;;;;;;;17.17;7.53;;;;;;;;;;4971627;28;20179;-76
2024/02/01 09:05:47;;;;;;;18.17;7.70;;;;;;;;;;4954708;28;20057;-79
2024/02/01 09:08:24;;;;;;;18.02;7.38;;;;;;;;;;4970866;28;20037;-76
2024/02/01 09:10:58;;;;;;;21.23;6.65;;;;;;;;;;4987860;28;20053;-76
2024/02/01 09:13:30;;;;;;;18.80;6.72;;;;;;;;;;4970316;28;20056;-74
2024/02/01 09:15:57;;;;;;;20.25;6.75;;;;;;;;;;4972009;28;20117;-78
2024/02/01 09:18:27;;;;;;;19.23;7.15;;;;;;;;;;4990105;28;20112;-78
2024/02/01 09:20:59;;;;;;;18.13;6.63;;;;;;;;;;4988630;28;20069;-75
2024/02/01 09:23:26;;;;;;;16.55;6.88;;;;;;;;;;4969725;28;20132;-75
2024/02/01 09:25:55;;;;;;;19.58;6.90;;;;;;;;;;4971582;28;20030;-76
2024/02/01 09:28:22;;;;;;;15.88;6.38;;;;;;;;;;4971524;28;20064;-75
2024/02/01 09:30:53;;;;;;;15.30;5.88;;;;;;;;;;4989700;28;20149;-76
2024/02/01 09:33:27;;;;;;;14.43;5.50;;;;;;;;;;4986889;28;20021;-76
2024/02/01 09:35:56;;;;;;;20.90;6.03;;;;;;;;;;4986693;28;20060;-75
2024/02/01 09:38:22;;;;;;;18.00;6.53;;;;;;;;;;4969324;28;20100;-78
2024/02/01 09:40:49;;;;;;;14.98;6.50;;;;;;;;;;4991010;28;20038;-75
2024/02/01 09:43:20;;;;;;;16.48;6.85;;;;;;;;;;4972575;28;20506;-75
2024/02/01 09:45:47;;;;;;;15.02;6.35;;;;;;;;;;4984792;28;20606;-75
2024/02/01 09:48:16;;;;;;;16.75;7.03;;;;;;;;;;4970708;28;20037;-75
2024/02/01 09:50:56;;;;;;;15.38;6.47;;;;;;;;;;4967522;28;20038;-75
2024/02/01 09:53:27;;;;;;;17.42;6.28;;;;;;;;;;4984552;28;20128;-75
2024/02/01 09:55:58;;;;;;;17.67;6.03;;;;;;;;;;4988514;28;20025;-75
2024/02/01 09:58:26;;;;;;;19.45;6.18;;;;;;;;;;4987547;28;20044;-77
2024/02/01 10:00:53;;;;;;;14.10;5.72;;;;;;;;;;4974075;28;20112;-74
2024/02/01 10:03:23;;;;;;;13.15;5.53;;;;;;;;;;4973172;28;20577;-78
2024/02/01 10:05:50;;;;;;;18.73;5.60;;;;;;;;;;4990934;28;20026;-75
2024/02/01 10:08:17;;;;;;;13.80;5.03;;;;;;;;;;4966979;28;20034;-75
2024/02/01 10:10:45;;;;;;;13.80;4.32;;;;;;;;;;4988369;28;20080;-75
2024/02/01 10:13:30;;;;;;;11.20;4.50;;;;;;;;;;4986278;28;20099;-75
2024/02/01 10:16:00;;;;;;;14.70;5.18;;;;;;;;;;4992152;28;20493;-76
2024/02/01 10:18:26;;;;;;;16.55;6.00;;;;;;;;;;4988017;28;20476;-75
2024/02/01 10:21:02;;;;;;;16.77;6.80;;;;;;;;;;4971182;28;20042;-75
2024/02/01 10:23:29;;;;;;;14.32;6.97;;;;;;;;;;4985222;28;20026;-75
2024/02/01 10:25:58;;;;;;;17.55;9.15;;;;;;;;;;4990493;28;20076;-75
2024/02/01 10:28:36;;;;;;;19.45;9.73;;;;;;;;;;4986251;28;20032;-75
2024/02/01 10:31:12;;;;;;;23.95;11.32;;;;;;;;;;4986894;28;20053;-76
2024/02/01 10:33:41;;;;;;;18.35;10.55;;;;;;;;;;4987541;28;20026;-75
2024/02/01 10:36:21;;;;;;;22.50;12.57;;;;;;;;;;4988991;28;20046;-75
2024/02/01 10:38:58;;;;;;;20.65;10.68;;;;;;;;;;4992695;28;20045;-76
2024/02/01 10:41:33;;;;;;;16.33;9.05;;;;;;;;;;4973112;28;20106;-75
2024/02/01 10:44:04;;;;;;;15.68;8.50;;;;;;;;;;4975958;28;20033;-75
2024/02/01 10:46:53;;;;;;;18.30;9.73;;;;;;;;;;4989629;28;20173;-76
2024/02/01 10:49:21;;;;;;;18.70;10.38;;;;;;;;;;4993507;28;20026;-75
2024/02/01 10:51:50;;;;;;;20.80;9.90;;;;;;;;;;4993014;28;20065;-75
2024/02/01 10:54:18;;;;;;;16.08;9.10;;;;;;;;;;4993772;28;20025;-75
2024/02/01 10:56:45;;;;;;;17.40;9.90;;;;;;;;;;4994281;28;20033;-75
2024/02/01 10:59:12;;;;;;;19.00;9.70;;;;;;;;;;4978507;28;20112;-75
2024/02/01 11:01:40;;;;;;;16.92;8.75;;;;;;;;;;4995290;28;20049;-75
2024/02/01 11:04:08;;;;;;;16.38;8.70;;;;;;;;;;4993321;28;20073;-76
2024/02/01 11:06:36;;;;;;;18.42;9.95;;;;;;;;;;4987513;28;20143;-76
2024/02/01 11:09:18;;;;;;;16.77;8.80;;;;;;;;;;4993539;28;20140;-75
2024/02/01 11:11:52;;;;;;;15.45;7.68;;;;;;;;;;4991197;28;20191;-75
2024/02/01 11:14:27;;;;;;;15.40;8.27;;;;;;;;;;4975944;28;20094;-76
2024/02/01 11:16:54;;;;;;;;;;;;;;;;;;4977582;28;20133;-78
2024/02/01 11:19:25;;;;;;;15.52;7.82;;;;;;;;;;4978604;28;20353;-74
2024/02/01 11:21:57;;;;;;;15.38;8.15;;;;;;;;;;4992740;28;20654;-74
2024/02/01 11:24:30;;;;;;;14.68;7.20;;;;;;;;;;4974319;28;20061;-76
2024/02/01 11:26:57;;;;;;;15.70;8.43;;;;;;;;;;4977517;28;20182;-76
2024/02/01 11:29:29;;;;;;;15.73;8.43;;;;;;;;;;4990859;28;20022;-74
2024/02/01 11:32:00;;;;;;;14.65;7.50;;;;;;;;;;4994949;28;20034;-75
2024/02/01 11:34:27;;;;;;;13.82;6.70;;;;;;;;;;4954343;28;20041;-76
2024/02/01 11:36:55;;;;;;;13.73;6.97;;;;;;;;;;4972479;28;20537;-75
2024/02/01 11:39:21;;;;;;;14.43;7.15;;;;;;;;;;4957884;28;20142;-74
2024/02/01 11:41:49;;;;;;;13.20;5.70;;;;;;;;;;4975923;28;20037;-74
2024/02/01 11:44:15;;;;;;;13.82;5.70;;;;;;;;;;4974950;28;20045;-72
2024/02/01 11:46:48;;;;;;;12.70;5.60;;;;;;;;;;4991549;28;20093;-73
2024/02/01 11:49:16;;;;;;;13.23;4.72;;;;;;;;;;4974430;28;20048;-76
2024/02/01 11:52:13;;;;;;;10.15;4.35;;;;;;;;;;4994624;28;20132;-74
2024/02/01 11:54:40;;;;;;;10.75;5.03;;;;;;;;;;4969195;28;20034;-76
2024/02/01 11:57:11;;;;;;;12.75;5.65;;;;;;;;;;4989783;28;20069;-74
2024/02/01 11:59:39;;;;;;;11.50;4.80;;;;;;;;;;4957649;28;20037;-74
2024/02/01 12:02:07;;;;;;;9.30;3.28;;;;;;;;;;4975214;28;20022;-75
2024/02/01 12:04:40;;;;;;;9.20;3.70;;;;;;;;;;4986933;28;20030;-74
2024/02/01 12:07:11;;;;;;;13.15;4.18;;;;;;;;;;4989646;28;20566;-74
2024/02/01 12:09:42;;;;;;;11.40;4.20;;;;;;;;;;4957394;28;20068;-74
2024/02/01 12:12:13;;;;;;;9.45;3.60;;;;;;;;;;4991153;28;20029;-74
2024/02/01 12:14:40;;;;;;;10.07;4.03;;;;;;;;;;4973227;28;20045;-75
2024/02/01 12:17:08;;;;;;;10.80;4.00;;;;;;;;;;4973815;28;20030;-74
2024/02/01 12:19:38;;;;;;;9.30;4.00;;;;;;;;;;4990728;28;20145;-74
2024/02/01 12:22:09;;;;;;;12.05;3.78;;;;;;;;;;4992075;28;20734;-75
2024/02/01 12:24:36;;;;;;;12.32;5.20;;;;;;;;;;4993713;28;20091;-74
2024/02/01 12:27:06;;;;;;;10.82;4.53;;;;;;;;;;4978705;28;20025;-74
2024/02/01 12:29:33;;;;;;;10.50;4.20;;;;;;;;;;4976361;28;20041;-74
2024/02/01 12:32:01;;;;;;;10.85;4.93;;;;;;;;;;4977150;28;20531;-75
2024/02/01 12:34:29;;;;;;;11.88;4.22;;;;;;;;;;4990161;28;20095;-74
2024/02/01 12:36:56;;;;;;;9.38;3.85;;;;;;;;;;4977830;28;20026;-74
2024/02/01 12:39:25;;;;;;;10.95;3.88;;;;;;;;;;4993017;28;20025;-74
2024/02/01 12:41:57;;;;;;;11.73;4.43;;;;;;;;;;4978053;28;20037;-75
2024/02/01 12:44:27;;;;;;;13.77;4.07;;;;;;;;;;4969357;28;20861;-75
2024/02/01 12:46:56;;;;;;;11.82;5.25;;;;;;;;;;5011807;28;20603;-73
2024/02/01 12:49:26;;;;;;;11.98;4.15;;;;;;;;;;5010613;28;20053;-74
2024/02/01 12:51:55;;;;;;;10.15;3.70;;;;;;;;;;5013146;28;20045;-74
2024/02/01 12:54:22;;;;;;;10.35;4.10;;;;;;;;;;4996716;28;20079;-74
2024/02/01 12:56:48;;;;;;;9.27;4.07;;;;;;;;;;5012584;28;20485;-74
2024/02/01 12:59:15;;;;;;;10.95;4.35;;;;;;;;;;4994241;28;20120;-75
2024/02/01 13:01:42;;;;;;;12.13;3.90;;;;;;;;;;5006711;28;20308;-75
2024/02/01 13:04:09;;;;;;;11.90;3.55;;;;;;;;;;5015935;28;20041;-75
2024/02/01 13:06:36;;;;;;;11.35;4.35;;;;;;;;;;4992313;28;20033;-77
2024/02/01 13:09:08;;;;;;;12.40;3.88;;;;;;;;;;5015148;28;20037;-75
2024/02/01 13:11:35;;;;;;;10.25;4.20;;;;;;;;;;5011328;28;20033;-75
2024/02/01 13:14:05;;;;;;;12.77;4.10;;;;;;;;;;5010650;28;20796;-75
2024/02/01 13:16:31;;;;;;;13.50;4.65;;;;;;;;;;4991759;28;20022;-75
2024/02/01 13:18:59;;;;;;;11.40;4.55;;;;;;;;;;4993900;28;20041;-75
2024/02/01 13:21:32;;;;;;;11.43;4.68;;;;;;;;;;4995420;28;20080;-75
2024/02/01 13:23:58;;;;;;;12.48;4.47;;;;;;;;;;4994482;28;20049;-75
2024/02/01 13:26:25;;;;;;;9.98;4.30;;;;;;;;;;5010015;28;20036;-73
2024/02/01 13:28:52;;;;;;;9.82;4.00;;;;;;;;;;4995063;28;20036;-76
2024/02/01 13:31:19;;;;;;;11.07;4.22;;;;;;;;;;5010757;28;20057;-75
2024/02/01 13:33:47;;;;;;;9.90;4.20;;;;;;;;;;4993187;28;20145;-74
2024/02/01 13:36:13;;;;;;;10.90;3.95;;;;;;;;;;5015305;28;20056;-76
2024/02/01 13:38:39;;;;;;;8.90;3.60;;;;;;;;;;5007054;28;20029;-75
2024/02/01 13:41:09;;;;;;;9.52;3.42;;;;;;;;;;4993560;28;20045;-76
2024/02/01 13:43:36;;;;;;;10.60;3.67;;;;;;;;;;5007238;28;20045;-76
2024/02/01 13:46:06;;;;;;;10.27;4.10;;;;;;;;;;5010532;28;20037;-75
2024/02/01 13:48:32;;;;;;;10.30;3.90;;;;;;;;;;5008250;28;20657;-75
2024/02/01 13:51:08;;;;;;;11.10;4.13;;;;;;;;;;5007818;28;20041;-76
2024/02/01 13:53:35;;;;;;;9.65;3.60;;;;;;;;;;4988899;28;20045;-74
2024/02/01 13:56:04;;;;;;;12.50;3.60;;;;;;;;;;4977797;28;20133;-75
2024/02/01 13:58:41;;;;;;;11.32;3.88;;;;;;;;;;5008404;28;20788;-75
2024/02/01 14:01:07;;;;;;;9.93;4.03;;;;;;;;;;5011537;28;20047;-75
2024/02/01 14:03:34;;;;;;;10.57;4.20;;;;;;;;;;5006498;28;20045;-74
2024/02/01 14:06:02;;;;;;;10.93;3.90;;;;;;;;;;5010236;28;20465;-74
2024/02/01 14:08:28;;;;;;;12.05;4.05;;;;;;;;;;4992427;28;20037;-76
2024/02/01 14:10:55;;;;;;;9.63;3.90;;;;;;;;;;5006679;28;20537;-75
2024/02/01 14:13:24;;;;;;;8.75;3.90;;;;;;;;;;5005754;28;20029;-74
2024/02/01 14:15:50;;;;;;;10.57;4.03;;;;;;;;;;4993049;28;20111;-75
2024/02/01 14:18:18;;;;;;;9.82;4.28;;;;;;;;;;5005912;28;20057;-75
2024/02/01 14:20:45;;;;;;;10.77;4.28;;;;;;;;;;4985617;28;20048;-77
2024/02/01 14:23:14;;;;;;;12.02;3.92;;;;;;;;;;5006553;28;20148;-74
2024/02/01 14:25:42;;;;;;;11.80;3.78;;;;;;;;;;5002377;28;20720;-74
2024/02/01 14:28:12;;;;;;;8.63;3.65;;;;;;;;;;5009408;28;20091;-74
2024/02/01 14:30:39;;;;;;;11.00;4.03;;;;;;;;;;5001710;28;20029;-74
2024/02/01 14:33:07;;;;;;;11.73;3.72;;;;;;;;;;5006990;28;20030;-74
2024/02/01 14:35:36;;;;;;;10.13;3.85;;;;;;;;;;5004515;28;20104;-74
2024/02/01 14:38:05;;;;;;;13.15;4.18;;;;;;;;;;5009540;28;20047;-74
2024/02/01 14:40:31;;;;;;;11.68;4.20;;;;;;;;;;5004507;28;20136;-77
2024/02/01 14:42:59;;;;;;;17.35;13.43;;;;;;;;;;5013538;28;20556;-76
2024/02/01 14:45:27;;;;;;;13.60;5.88;;;;;;;;;;5004862;28;20088;-75
2024/02/01 14:47:53;;;;;;;8.98;4.47;;;;;;;;;;4992271;28;20531;-75
2024/02/01 14:50:22;;;;;;;11.13;3.88;;;;;;;;;;5009471;28;20041;-74
2024/02/01 14:52:49;;;;;;;13.02;7.28;;;;;;;;;;5009444;28;20029;-74
2024/02/01 14:55:15;;;;;;;9.73;4.22;;;;;;;;;;4973730;28;20111;-75
2024/02/01 14:57:44;;;;;;;10.52;4.88;;;;;;;;;;5007120;28;20033;-75
2024/02/01 15:00:14;;;;;;;10.23;4.00;;;;;;;;;;4986615;28;20041;-75
2024/02/01 15:02:40;;;;;;;12.88;4.25;;;;;;;;;;5005295;28;20033;-74
2024/02/01 15:05:13;;;;;;;12.88;7.18;;;;;;;;;;4972212;28;20034;-74
2024/02/01 15:07:41;;;;;;;11.85;5.78;;;;;;;;;;5003402;28;20033;-74
2024/02/01 15:10:14;;;;;;;10.02;4.22;;;;;;;;;;4987331;28;20153;-74
2024/02/01 15:12:40;;;;;;;12.75;4.05;;;;;;;;;;4990444;28;20043;-74
2024/02/01 15:15:08;;;;;;;12.15;5.28;;;;;;;;;;4987403;28;20029;-75
2024/02/01 15:17:39;;;;;;;10.75;4.55;;;;;;;;;;4988603;28;20061;-74
2024/02/01 15:20:07;;;;;;;10.68;3.92;;;;;;;;;;4990534;28;20083;-75
2024/02/01 15:22:34;;;;;;;11.77;4.22;;;;;;;;;;4987560;28;20069;-75
2024/02/01 15:25:03;;;;;;;10.05;3.78;;;;;;;;;;4993500;28;20034;-75
2024/02/01 15:27:31;;;;;;;10.23;3.80;;;;;;;;;;4990622;28;20030;-75
2024/02/01 15:30:09;;;;;;;10.88;3.50;;;;;;;;;;4993443;28;20030;-74
2024/02/01 15:32:39;;;;;;;11.18;4.18;;;;;;;;;;4991950;28;20025;-74
2024/02/01 15:35:07;;;;;;;13.55;4.88;;;;;;;;;;4990221;28;20343;-75
2024/02/01 15:37:33;;;;;;;11.45;3.88;;;;;;;;;;4991304;28;20018;-75
2024/02/01 15:40:01;;;;;;;9.40;3.70;;;;;;;;;;4991350;28;20592;-74
2024/02/01 15:42:28;;;;;;;11.18;3.85;;;;;;;;;;4991685;28;20034;-74
2024/02/01 15:44:56;;;;;;;12.18;3.65;;;;;;;;;;4995994;28;20046;-75
2024/02/01 15:47:22;;;;;;;11.30;3.67;;;;;;;;;;4990179;28;20032;-74
2024/02/01 15:49:48;;;;;;;10.80;3.60;;;;;;;;;;4989872;28;20030;-75